createdAt,value
2022-10-25T00:01:27.538Z,5.22
2022-10-25T00:03:55.993Z,6.40
2022-10-25T00:06:24.580Z,5.15
2022-10-25T00:08:52.417Z,4.20
2022-10-25T00:11:23.076Z,3.15
2022-10-25T00:13:53.491Z,2.47
2022-10-25T00:16:27.615Z,3.35
2022-10-25T00:18:57.195Z,2.75
2022-10-25T00:21:25.664Z,2.50
2022-10-25T00:23:53.920Z,2.72
2022-10-25T00:26:21.902Z,2.95
2022-10-25T00:28:49.466Z,3.00
2022-10-25T00:31:17.707Z,2.88
2022-10-25T00:33:45.845Z,3.40
2022-10-25T00:36:18.841Z,3.42
2022-10-25T00:38:46.761Z,3.40
2022-10-25T00:41:17.065Z,4.00
2022-10-25T00:43:53.028Z,4.25
2022-10-25T00:46:21.153Z,4.15
2022-10-25T00:48:54.467Z,3.50
2022-10-25T00:51:26.136Z,4.22
2022-10-25T00:53:53.771Z,4.25
2022-10-25T00:56:25.700Z,4.40
2022-10-25T00:58:58.043Z,4.38
2022-10-25T01:01:26.248Z,5.78
2022-10-25T01:04:00.581Z,4.87
2022-10-25T01:06:38.928Z,4.45
2022-10-25T01:09:13.460Z,5.32
2022-10-25T01:11:41.021Z,4.57
2022-10-25T01:14:13.058Z,5.00
2022-10-25T01:17:01.054Z,6.32
2022-10-25T01:19:31.224Z,5.00
2022-10-25T01:22:11.816Z,5.53
2022-10-25T01:25:16.845Z,6.50
2022-10-25T01:28:09.481Z,6.97
2022-10-25T01:31:10.793Z,6.78
2022-10-25T01:33:57.151Z,6.50
2022-10-25T01:36:45.749Z,7.22
2022-10-25T01:39:29.541Z,6.43
2022-10-25T01:42:30.709Z,6.70
2022-10-25T01:45:11.254Z,6.13
2022-10-25T01:47:48.545Z,6.15
2022-10-25T01:50:31.377Z,6.38
2022-10-25T01:52:58.897Z,6.35
2022-10-25T01:55:36.785Z,6.15
2022-10-25T01:58:04.296Z,6.20
2022-10-25T02:00:47.695Z,7.18
2022-10-25T02:03:30.340Z,5.68
2022-10-25T02:06:21.936Z,5.20
2022-10-25T02:09:21.024Z,5.80
2022-10-25T02:11:51.950Z,5.50
2022-10-25T02:14:32.844Z,6.50
2022-10-25T02:17:04.049Z,6.18
2022-10-25T02:19:34.801Z,5.82
2022-10-25T02:22:04.285Z,5.88
2022-10-25T02:24:32.392Z,5.80
2022-10-25T02:27:02.780Z,6.47
2022-10-25T02:29:32.784Z,6.38
2022-10-25T02:32:02.270Z,6.97
2022-10-25T02:34:32.967Z,6.65
2022-10-25T02:37:01.051Z,7.15
2022-10-25T02:39:31.487Z,7.05
2022-10-25T02:42:02.540Z,7.68
2022-10-25T02:44:30.563Z,7.00
2022-10-25T02:46:58.512Z,7.88
2022-10-25T02:49:25.995Z,7.32
2022-10-25T02:51:53.461Z,7.32
2022-10-25T02:54:21.301Z,8.40
2022-10-25T02:56:52.566Z,7.43
2022-10-25T02:59:21.471Z,7.50
2022-10-25T03:01:49.499Z,7.70
2022-10-25T03:04:17.199Z,8.40
2022-10-25T03:06:45.258Z,8.70
2022-10-25T03:09:13.228Z,9.00
2022-10-25T03:11:41.050Z,9.73
2022-10-25T03:14:08.563Z,10.32
2022-10-25T03:16:36.253Z,11.00
2022-10-25T03:19:03.877Z,11.13
2022-10-25T03:21:32.941Z,11.50
2022-10-25T03:24:00.655Z,12.15
2022-10-25T03:26:28.282Z,11.98
2022-10-25T03:28:56.941Z,10.93
2022-10-25T03:31:25.250Z,9.77
2022-10-25T03:33:52.720Z,9.88
2022-10-25T03:36:20.455Z,10.27
2022-10-25T03:38:47.983Z,11.13
2022-10-25T03:41:16.176Z,10.55
2022-10-25T03:43:43.681Z,10.00
2022-10-25T03:46:11.230Z,11.45
2022-10-25T03:48:39.139Z,11.65
2022-10-25T03:51:06.696Z,11.50
2022-10-25T03:53:34.264Z,12.20
2022-10-25T03:56:01.880Z,14.35
2022-10-25T03:58:29.524Z,13.68
2022-10-25T04:00:57.457Z,12.93
2022-10-25T04:03:25.124Z,13.70
2022-10-25T04:05:52.608Z,12.98
2022-10-25T04:08:20.663Z,13.45
2022-10-25T04:10:48.174Z,13.30
2022-10-25T04:13:15.851Z,12.68
2022-10-25T04:15:43.524Z,12.43
2022-10-25T04:18:11.073Z,11.68
2022-10-25T04:20:38.636Z,12.88
2022-10-25T04:23:06.132Z,13.32
2022-10-25T04:25:34.103Z,12.38
2022-10-25T04:28:01.674Z,12.35
2022-10-25T04:30:29.257Z,11.80
2022-10-25T04:32:59.819Z,12.57
2022-10-25T04:35:27.280Z,12.65
2022-10-25T04:37:57.509Z,12.57
2022-10-25T04:40:25.350Z,12.60
2022-10-25T04:42:52.917Z,12.93
2022-10-25T04:45:20.435Z,12.60
2022-10-25T04:47:48.618Z,12.98
2022-10-25T04:50:16.260Z,12.90
2022-10-25T04:52:45.547Z,12.70
2022-10-25T04:55:13.465Z,12.35
2022-10-25T04:57:40.957Z,12.07
2022-10-25T05:00:09.198Z,12.80
2022-10-25T05:02:37.031Z,12.13
2022-10-25T05:05:04.965Z,11.68
2022-10-25T05:07:32.522Z,12.23
2022-10-25T05:10:00.420Z,12.70
2022-10-25T05:12:30.872Z,12.05
2022-10-25T05:14:59.190Z,12.07
2022-10-25T05:17:28.417Z,15.63
2022-10-25T05:19:55.877Z,15.30
2022-10-25T05:22:24.085Z,15.68
2022-10-25T05:24:51.973Z,15.30
2022-10-25T05:27:19.528Z,13.93
2022-10-25T05:29:48.469Z,13.40
2022-10-25T05:32:15.956Z,14.82
2022-10-25T05:34:43.441Z,14.65
2022-10-25T05:37:12.162Z,14.68
2022-10-25T05:39:42.121Z,13.50
2022-10-25T05:42:09.905Z,13.38
2022-10-25T05:44:37.770Z,15.02
2022-10-25T05:47:05.439Z,15.27
2022-10-25T05:49:39.587Z,14.30
2022-10-25T05:52:07.611Z,14.07
2022-10-25T05:54:35.551Z,14.32
2022-10-25T05:57:03.156Z,13.02
2022-10-25T05:59:30.649Z,12.88
2022-10-25T06:01:58.865Z,12.82
2022-10-25T06:04:26.701Z,13.18
2022-10-25T06:06:58.039Z,12.73
2022-10-25T06:09:25.843Z,13.50
2022-10-25T06:11:54.208Z,12.25
2022-10-25T06:14:21.750Z,11.75
2022-10-25T06:16:49.816Z,12.02
2022-10-25T06:19:17.917Z,12.00
2022-10-25T06:21:46.899Z,12.10
2022-10-25T06:24:14.600Z,12.15
2022-10-25T06:26:42.473Z,11.25
2022-10-25T06:29:09.989Z,11.13
2022-10-25T06:31:37.513Z,11.73
2022-10-25T06:34:05.101Z,12.68
2022-10-25T06:36:32.777Z,12.77
2022-10-25T06:39:05.673Z,10.52
2022-10-25T06:41:38.584Z,9.43
2022-10-25T06:44:07.116Z,9.02
2022-10-25T06:47:04.533Z,9.43
2022-10-25T06:49:26.755Z,10.00
2022-10-25T06:51:54.941Z,9.63
2022-10-25T06:54:23.062Z,8.90
2022-10-25T06:56:50.634Z,8.93
2022-10-25T06:59:19.524Z,32.28
2022-10-25T07:01:47.585Z,9.47
2022-10-25T07:04:15.577Z,11.15
2022-10-25T07:06:43.177Z,8.70
2022-10-25T07:09:12.522Z,8.65
2022-10-25T07:11:42.701Z,21.60
2022-10-25T07:14:11.952Z,9.25
2022-10-25T07:16:39.554Z,9.48
2022-10-25T07:19:10.048Z,9.18
2022-10-25T07:21:37.598Z,9.13
2022-10-25T07:24:05.227Z,9.77
2022-10-25T07:26:34.970Z,9.10
2022-10-25T07:29:04.277Z,9.85
2022-10-25T07:31:34.317Z,8.43
2022-10-25T07:34:04.515Z,8.90
2022-10-25T07:36:32.860Z,9.10
2022-10-25T07:39:02.990Z,9.02
2022-10-25T07:41:30.672Z,9.50
2022-10-25T07:43:58.322Z,9.35
2022-10-25T07:46:27.169Z,9.40
2022-10-25T07:48:55.423Z,9.38
2022-10-25T07:51:23.876Z,9.05
2022-10-25T07:53:53.224Z,8.65
2022-10-25T07:56:23.600Z,8.55
2022-10-25T07:58:53.068Z,9.70
2022-10-25T08:01:28.445Z,9.55
2022-10-25T08:03:57.037Z,9.07
2022-10-25T08:06:26.475Z,9.32
2022-10-25T08:08:55.728Z,9.48
2022-10-25T08:11:23.410Z,9.90
2022-10-25T08:13:51.955Z,9.32
2022-10-25T08:16:22.349Z,9.43
2022-10-25T08:18:50.004Z,9.05
2022-10-25T08:21:17.636Z,9.27
2022-10-25T08:23:45.441Z,7.95
2022-10-25T08:26:12.978Z,8.85
2022-10-25T08:28:42.048Z,7.72
2022-10-25T08:31:10.433Z,7.90
2022-10-25T08:33:38.009Z,8.13
2022-10-25T08:36:05.885Z,7.28
2022-10-25T08:38:34.271Z,7.68
2022-10-25T08:41:28.040Z,7.90
2022-10-25T08:44:27.020Z,7.72
2022-10-25T08:47:03.622Z,8.13
2022-10-25T08:50:00.931Z,6.78
2022-10-25T08:52:50.009Z,7.78
2022-10-25T08:55:23.494Z,7.15
2022-10-25T08:57:52.569Z,7.00
2022-10-25T09:00:22.709Z,7.20
2022-10-25T09:02:53.781Z,7.05
2022-10-25T09:05:41.291Z,10.70
2022-10-25T09:08:31.735Z,7.45
2022-10-25T09:11:08.416Z,7.47
2022-10-25T09:13:54.832Z,7.10
2022-10-25T09:16:41.621Z,7.95
2022-10-25T09:19:17.379Z,6.80
2022-10-25T09:21:57.711Z,8.32
2022-10-25T09:24:43.383Z,7.50
2022-10-25T09:27:26.496Z,7.85
2022-10-25T09:30:09.092Z,7.22
2022-10-25T09:32:43.917Z,6.70
2022-10-25T09:35:20.892Z,8.55
2022-10-25T09:37:52.618Z,6.70
2022-10-25T09:40:25.582Z,7.13
2022-10-25T09:43:03.144Z,6.32
2022-10-25T09:45:54.673Z,6.10
2022-10-25T09:48:39.079Z,6.60
2022-10-25T09:51:18.020Z,6.00
2022-10-25T09:53:46.551Z,6.28
2022-10-25T09:56:14.652Z,7.10
2022-10-25T09:58:49.859Z,6.43
2022-10-25T10:01:25.476Z,6.93
2022-10-25T10:03:55.824Z,7.28
2022-10-25T10:06:31.304Z,12.48
2022-10-25T10:09:07.645Z,7.85
2022-10-25T10:11:36.726Z,8.63
2022-10-25T10:14:25.601Z,8.82
2022-10-25T10:16:58.210Z,8.98
2022-10-25T10:19:30.055Z,8.98
2022-10-25T10:22:01.273Z,9.18
2022-10-25T10:24:42.294Z,10.38
2022-10-25T10:27:24.576Z,10.05
2022-10-25T10:30:06.451Z,8.70
2022-10-25T10:35:34.385Z,9.50
2022-10-25T10:38:13.867Z,8.82
2022-10-25T10:40:41.792Z,8.25
2022-10-25T10:43:31.721Z,8.40
2022-10-25T10:46:05.285Z,7.25
2022-10-25T10:48:42.074Z,7.22
2022-10-25T10:54:23.008Z,7.53
2022-10-25T11:02:28.279Z,6.43
2022-10-25T11:04:57.171Z,6.07
2022-10-25T11:07:36.015Z,6.32
2022-10-25T11:10:20.680Z,6.22
2022-10-25T11:13:04.930Z,7.05
2022-10-25T11:15:55.290Z,8.13
2022-10-25T11:18:46.049Z,6.45
2022-10-25T11:21:31.613Z,23.60
2022-10-25T11:24:14.938Z,5.68
2022-10-25T11:26:49.520Z,6.38
2022-10-25T11:29:25.966Z,5.80
2022-10-25T11:32:24.267Z,5.47
2022-10-25T11:34:51.843Z,5.32
2022-10-25T11:37:34.852Z,5.93
2022-10-25T11:40:02.430Z,4.82
2022-10-25T11:43:10.290Z,4.97
2022-10-25T11:45:44.568Z,4.88
2022-10-25T11:48:24.676Z,4.38
2022-10-25T11:51:13.329Z,4.28
2022-10-25T11:54:05.643Z,4.20
2022-10-25T11:56:36.227Z,4.40
2022-10-25T11:59:20.216Z,4.47
2022-10-25T12:02:03.730Z,4.60
2022-10-25T12:04:43.006Z,5.07
2022-10-25T12:07:47.439Z,4.40
2022-10-25T12:10:54.734Z,5.25
2022-10-25T12:13:31.604Z,4.90
2022-10-25T12:16:00.476Z,5.03
2022-10-25T12:18:41.896Z,4.65
2022-10-25T12:21:12.970Z,5.20
2022-10-25T12:23:47.315Z,6.50
2022-10-25T12:26:18.211Z,6.28
2022-10-25T12:28:50.051Z,6.38
2022-10-25T12:31:25.545Z,7.03
2022-10-25T12:34:01.882Z,6.47
2022-10-25T12:36:39.331Z,5.38
2022-10-25T12:39:21.572Z,5.38
2022-10-25T12:41:59.774Z,4.30
2022-10-25T12:44:27.278Z,4.15
2022-10-25T12:47:22.572Z,4.00
2022-10-25T12:50:08.372Z,4.57
2022-10-25T12:52:40.074Z,3.72
2022-10-25T12:55:29.164Z,3.63
2022-10-25T12:58:28.957Z,3.35
2022-10-25T13:00:56.481Z,22.73
2022-10-25T13:03:33.892Z,5.03
2022-10-25T13:06:13.500Z,3.95
2022-10-25T13:08:42.924Z,4.22
2022-10-25T13:11:11.452Z,5.13
2022-10-25T13:13:49.733Z,6.00
2022-10-25T13:16:30.584Z,4.47
2022-10-25T13:19:53.977Z,4.68
2022-10-25T13:22:37.444Z,4.80
2022-10-25T13:25:12.652Z,4.40
2022-10-25T13:28:32.682Z,4.40
2022-10-25T13:31:35.625Z,4.53
2022-10-25T13:34:12.564Z,4.47
2022-10-25T13:36:54.403Z,3.97
2022-10-25T13:39:44.640Z,4.07
2022-10-25T13:42:14.976Z,4.13
2022-10-25T13:45:09.182Z,4.18
2022-10-25T13:47:45.744Z,4.18
2022-10-25T13:53:21.891Z,4.38
2022-10-25T13:56:03.236Z,4.47
2022-10-25T13:58:32.301Z,4.35
2022-10-25T14:01:24.985Z,4.70
2022-10-25T14:04:21.206Z,4.82
2022-10-25T14:06:48.765Z,5.03
2022-10-25T14:09:25.371Z,4.60
2022-10-25T14:11:59.727Z,4.63
2022-10-25T14:15:00.043Z,4.90
2022-10-25T14:17:43.255Z,4.60
2022-10-25T14:20:26.077Z,5.63
2022-10-25T14:22:58.063Z,4.63
2022-10-25T14:25:35.568Z,4.60
2022-10-25T14:28:14.856Z,4.93
2022-10-25T14:30:47.525Z,5.10
2022-10-25T14:33:30.488Z,6.25
2022-10-25T14:36:32.253Z,8.48
2022-10-25T14:39:24.249Z,12.32
2022-10-25T14:41:53.833Z,6.35
2022-10-25T14:44:25.619Z,6.60
2022-10-25T14:46:54.058Z,8.38
2022-10-25T14:49:23.911Z,8.70
2022-10-25T14:51:59.654Z,5.30
2022-10-25T14:54:33.919Z,5.30
2022-10-25T14:57:06.899Z,5.07
2022-10-25T14:59:49.543Z,6.30
2022-10-25T15:02:44.109Z,12.90
2022-10-25T15:05:21.658Z,7.70
2022-10-25T15:07:55.584Z,5.00
2022-10-25T15:10:30.566Z,6.10
2022-10-25T15:13:12.387Z,5.78
2022-10-25T15:15:45.012Z,6.18
2022-10-25T15:18:25.730Z,5.03
2022-10-25T15:21:12.731Z,4.95
2022-10-25T15:23:42.777Z,4.70
2022-10-25T15:26:26.036Z,5.28
2022-10-25T15:28:56.939Z,5.32
2022-10-25T15:31:27.380Z,5.05
2022-10-25T15:34:05.724Z,5.35
2022-10-25T15:36:34.160Z,5.40
2022-10-25T15:39:10.563Z,5.28
2022-10-25T15:41:40.351Z,5.53
2022-10-25T15:44:07.967Z,5.40
2022-10-25T15:46:36.587Z,5.43
2022-10-25T15:49:09.523Z,5.60
2022-10-25T15:51:40.543Z,5.20
2022-10-25T15:54:22.780Z,5.28
2022-10-25T15:56:51.814Z,4.85
2022-10-25T15:59:19.382Z,4.93
2022-10-25T16:01:51.366Z,4.45
2022-10-25T16:04:19.452Z,4.93
2022-10-25T16:06:47.456Z,5.50
2022-10-25T16:09:15.135Z,5.28
2022-10-25T16:11:47.152Z,6.03
2022-10-25T16:14:23.322Z,6.05
2022-10-25T16:16:51.819Z,6.45
2022-10-25T16:19:21.632Z,5.72
2022-10-25T16:21:49.335Z,7.80
2022-10-25T16:24:17.175Z,6.00
2022-10-25T16:26:47.519Z,6.53
2022-10-25T16:29:21.685Z,6.32
2022-10-25T16:31:49.925Z,7.05
2022-10-25T16:34:19.581Z,6.30
2022-10-25T16:36:49.264Z,6.78
2022-10-25T16:39:17.468Z,6.68
2022-10-25T16:41:46.821Z,6.63
2022-10-25T16:44:17.329Z,8.80
2022-10-25T16:46:45.869Z,14.15
2022-10-25T16:49:14.207Z,7.18
2022-10-25T16:51:41.945Z,11.60
2022-10-25T16:54:11.177Z,7.40
2022-10-25T16:56:39.675Z,6.57
2022-10-25T16:59:07.320Z,6.70
2022-10-25T17:01:39.004Z,7.32
2022-10-25T17:04:14.966Z,6.07
2022-10-25T17:06:43.277Z,6.82
2022-10-25T17:09:12.086Z,6.90
2022-10-25T17:11:40.461Z,7.85
2022-10-25T17:14:13.333Z,6.55
2022-10-25T17:16:44.777Z,9.00
2022-10-25T17:19:13.787Z,7.22
2022-10-25T17:21:41.407Z,7.38
2022-10-25T17:24:10.009Z,7.93
2022-10-25T17:26:40.315Z,7.38
2022-10-25T17:29:08.150Z,6.38
2022-10-25T17:31:37.740Z,6.93
2022-10-25T17:34:05.432Z,6.93
2022-10-25T17:36:33.738Z,6.78
2022-10-25T17:39:01.410Z,6.30
2022-10-25T17:41:31.484Z,6.95
2022-10-25T17:43:59.275Z,6.13
2022-10-25T17:46:30.895Z,6.18
2022-10-25T17:49:03.675Z,6.00
2022-10-25T17:51:33.635Z,5.72
2022-10-25T17:56:29.145Z,5.60
2022-10-25T17:58:58.306Z,5.72
2022-10-25T18:01:28.146Z,6.38
2022-10-25T18:03:55.908Z,6.15
2022-10-25T18:06:25.779Z,6.13
2022-10-25T18:08:58.992Z,6.15
2022-10-25T18:11:28.500Z,5.57
2022-10-25T18:14:01.667Z,5.60
2022-10-25T18:16:31.877Z,6.38
2022-10-25T18:19:02.329Z,6.18
2022-10-25T18:21:32.043Z,5.70
2022-10-25T18:24:02.358Z,5.22
2022-10-25T18:26:30.462Z,5.07
2022-10-25T18:28:58.947Z,4.97
2022-10-25T18:31:27.447Z,5.15
2022-10-25T18:33:55.592Z,4.90
2022-10-25T18:36:23.202Z,5.70
2022-10-25T18:38:51.754Z,4.75
2022-10-25T18:41:23.381Z,5.53
2022-10-25T18:43:51.396Z,5.93
2022-10-25T18:46:19.562Z,4.80
2022-10-25T18:48:52.285Z,4.97
2022-10-25T18:51:21.959Z,5.50
2022-10-25T18:53:56.707Z,5.28
2022-10-25T18:56:25.166Z,4.85
2022-10-25T18:58:55.152Z,5.63
2022-10-25T19:01:25.757Z,4.78
2022-10-25T19:03:55.866Z,5.10
2022-10-25T19:06:24.203Z,4.80
2022-10-25T19:08:51.802Z,4.88
2022-10-25T19:11:20.281Z,4.57
2022-10-25T19:13:50.573Z,4.57
2022-10-25T19:16:19.705Z,4.47
2022-10-25T19:18:47.598Z,4.43
2022-10-25T19:21:19.244Z,4.57
2022-10-25T19:23:50.071Z,4.57
2022-10-25T19:26:22.820Z,4.25
2022-10-25T19:29:00.029Z,4.05
2022-10-25T19:31:28.843Z,4.20
2022-10-25T19:34:00.449Z,4.30
2022-10-25T19:36:32.198Z,4.55
2022-10-25T19:39:01.617Z,4.63
2022-10-25T19:41:29.409Z,4.57
2022-10-25T19:43:58.632Z,5.28
2022-10-25T19:46:26.374Z,4.90
2022-10-25T19:48:56.307Z,9.93
2022-10-25T19:51:24.332Z,6.13
2022-10-25T19:53:52.239Z,5.63
2022-10-25T19:56:22.995Z,6.10
2022-10-25T19:58:51.252Z,5.57
2022-10-25T20:01:23.490Z,7.80
2022-10-25T20:03:54.577Z,6.60
2022-10-25T20:06:26.989Z,6.10
2022-10-25T20:08:55.947Z,6.53
2022-10-25T20:11:24.951Z,6.68
2022-10-25T20:13:57.189Z,6.28
2022-10-25T20:16:25.665Z,5.45
2022-10-25T20:18:59.952Z,8.07
2022-10-25T20:21:34.158Z,8.63
2022-10-25T20:24:05.143Z,5.60
2022-10-25T20:26:36.430Z,5.72
2022-10-25T20:29:11.651Z,6.03
2022-10-25T20:31:39.238Z,5.35
2022-10-25T20:34:07.532Z,5.90
2022-10-25T20:36:35.108Z,6.45
2022-10-25T20:39:02.885Z,5.95
2022-10-25T20:41:31.124Z,6.43
2022-10-25T20:44:00.773Z,6.35
2022-10-25T20:46:31.040Z,5.90
2022-10-25T20:48:59.763Z,6.35
2022-10-25T20:51:28.578Z,6.90
2022-10-25T20:53:57.096Z,6.32
2022-10-25T20:56:25.301Z,6.43
2022-10-25T20:58:52.955Z,6.07
2022-10-25T21:01:20.859Z,6.22
2022-10-25T21:03:48.794Z,5.50
2022-10-25T21:06:16.784Z,6.00
2022-10-25T21:08:44.313Z,6.05
2022-10-25T21:11:12.943Z,5.50
2022-10-25T21:13:43.076Z,5.75
2022-10-25T21:16:13.594Z,5.80
2022-10-25T21:18:42.358Z,5.18
2022-10-25T21:21:17.986Z,5.80
2022-10-25T21:23:47.369Z,5.22
2022-10-25T21:26:15.723Z,5.25
2022-10-25T21:28:45.596Z,4.72
2022-10-25T21:31:14.978Z,5.50
2022-10-25T21:33:49.904Z,5.13
2022-10-25T21:36:20.606Z,5.13
2022-10-25T21:41:26.985Z,5.00
2022-10-25T21:43:56.465Z,4.88
2022-10-25T21:46:26.195Z,5.32
2022-10-25T21:51:24.580Z,5.00
2022-10-25T21:53:53.640Z,5.47
2022-10-25T21:56:31.170Z,5.00
2022-10-25T21:59:00.331Z,4.75
2022-10-25T22:01:29.687Z,4.70
2022-10-25T22:03:57.559Z,5.10
2022-10-25T22:06:27.240Z,4.70
2022-10-25T22:08:55.776Z,4.88
2022-10-25T22:11:30.462Z,5.22
2022-10-25T22:14:00.588Z,8.07
2022-10-25T22:16:29.583Z,5.38
2022-10-25T22:18:59.838Z,5.72
2022-10-25T22:21:34.067Z,5.13
2022-10-25T22:24:04.507Z,4.65
2022-10-25T22:26:32.681Z,5.15
2022-10-25T22:29:00.927Z,4.38
2022-10-25T22:31:30.584Z,5.15
2022-10-25T22:34:03.215Z,4.80
2022-10-25T22:36:35.130Z,5.22
2022-10-25T22:39:03.065Z,4.40
2022-10-25T22:41:31.835Z,4.60
2022-10-25T22:44:00.553Z,4.85
2022-10-25T22:46:34.071Z,5.18
2022-10-25T22:49:07.373Z,5.85
2022-10-25T22:51:36.380Z,5.20
2022-10-25T22:54:04.270Z,5.53
2022-10-25T22:56:34.371Z,5.70
2022-10-25T22:59:04.622Z,5.53
2022-10-25T23:01:35.687Z,5.05
2022-10-25T23:04:06.621Z,5.57
2022-10-25T23:06:36.827Z,5.20
2022-10-25T23:09:11.799Z,5.63
2022-10-25T23:11:40.889Z,5.25
2022-10-25T23:14:14.813Z,5.95
2022-10-25T23:16:46.109Z,5.25
2022-10-25T23:19:13.793Z,5.00
2022-10-25T23:21:41.267Z,4.95
2022-10-25T23:24:09.783Z,5.18
2022-10-25T23:26:37.979Z,5.40
2022-10-25T23:29:05.909Z,5.13
2022-10-25T23:31:33.893Z,5.28
2022-10-25T23:34:01.959Z,5.00
2022-10-25T23:36:37.787Z,5.45
2022-10-25T23:39:07.666Z,5.25
2022-10-25T23:41:35.681Z,5.13
2022-10-25T23:44:03.382Z,5.13
2022-10-25T23:46:32.169Z,5.15
2022-10-25T23:49:00.100Z,5.53
2022-10-25T23:51:27.701Z,5.10
2022-10-25T23:53:55.315Z,5.03
2022-10-25T23:56:22.810Z,6.38
2022-10-25T23:58:53.838Z,7.32
